createdAt,value
2019-03-28T00:01:07.215Z,95888.02
2019-03-28T00:03:35.338Z,95891.27
2019-03-28T00:06:03.454Z,95888.41
2019-03-28T00:08:31.519Z,95895.94
2019-03-28T00:11:00.173Z,95899.40
2019-03-28T00:13:28.261Z,95891.65
2019-03-28T00:15:56.515Z,95900.78
2019-03-28T00:18:25.892Z,95896.20
2019-03-28T00:20:53.989Z,95893.25
2019-03-28T00:23:50.393Z,95902.67
2019-03-28T00:26:29.368Z,95899.98
2019-03-28T00:28:48.439Z,95892.99
2019-03-28T00:31:16.475Z,95893.14
2019-03-28T00:33:44.559Z,95889.12
2019-03-28T00:36:12.655Z,95891.61
2019-03-28T00:38:40.739Z,95883.27
2019-03-28T00:41:08.772Z,95888.25
2019-03-28T00:43:36.806Z,95886.30
2019-03-28T00:46:04.852Z,95883.91
2019-03-28T00:48:32.780Z,95886.61
2019-03-28T00:51:00.809Z,95888.89
2019-03-28T00:53:28.832Z,95883.66
2019-03-28T00:55:56.929Z,95889.21
2019-03-28T00:58:24.887Z,95894.02
2019-03-28T01:00:52.900Z,95893.48
2019-03-28T01:03:20.891Z,95888.59
2019-03-28T01:05:49.000Z,95893.11
2019-03-28T01:08:17.061Z,95893.16
2019-03-28T01:10:45.028Z,95893.96
2019-03-28T01:13:13.036Z,95891.56
2019-03-28T01:15:41.033Z,95888.92
2019-03-28T01:18:09.262Z,95888.44
2019-03-28T01:20:37.193Z,95890.31
2019-03-28T01:23:05.128Z,95884.59
2019-03-28T01:25:33.085Z,95885.03
2019-03-28T01:28:01.231Z,95889.59
2019-03-28T01:30:29.190Z,95888.56
2019-03-28T01:32:57.204Z,95891.82
2019-03-28T01:35:25.771Z,95891.03
2019-03-28T01:37:54.400Z,95891.80
2019-03-28T01:40:22.487Z,95892.31
2019-03-28T01:42:50.426Z,95902.00
2019-03-28T01:45:18.365Z,95908.03
2019-03-28T01:47:46.225Z,95897.78
2019-03-28T01:50:14.243Z,95903.08
2019-03-28T01:52:42.290Z,95908.08
2019-03-28T01:55:10.332Z,95902.38
2019-03-28T01:57:38.340Z,95901.63
2019-03-28T02:00:06.902Z,95900.86
2019-03-28T02:02:34.904Z,95907.34
2019-03-28T02:05:03.269Z,95904.08
2019-03-28T02:07:31.275Z,95904.61
2019-03-28T02:09:59.350Z,95912.19
2019-03-28T02:12:27.358Z,95915.77
2019-03-28T02:14:55.404Z,95910.22
2019-03-28T02:17:23.422Z,95907.54
2019-03-28T02:19:52.753Z,95906.89
2019-03-28T02:22:20.718Z,95909.53
2019-03-28T02:24:48.703Z,95912.11
2019-03-28T02:27:24.034Z,95910.59
2019-03-28T02:29:46.629Z,95913.79
2019-03-28T02:32:14.616Z,95907.97
2019-03-28T02:34:42.754Z,95906.84
2019-03-28T02:37:10.731Z,95907.42
2019-03-28T02:39:38.769Z,95923.57
2019-03-28T02:42:06.737Z,95914.63
2019-03-28T02:44:34.741Z,95911.44
2019-03-28T02:47:02.732Z,95928.22
2019-03-28T02:49:30.762Z,95917.80
2019-03-28T02:51:58.807Z,95905.34
2019-03-28T02:54:28.074Z,95915.02
2019-03-28T02:56:56.036Z,95914.88
2019-03-28T02:59:23.979Z,95918.63
2019-03-28T03:01:51.998Z,95912.03
2019-03-28T03:04:20.000Z,95916.48
2019-03-28T03:06:48.036Z,95922.20
2019-03-28T03:09:15.951Z,95919.17
2019-03-28T03:11:43.965Z,95920.72
2019-03-28T03:14:12.254Z,95922.80
2019-03-28T03:16:40.286Z,95924.14
2019-03-28T03:19:08.331Z,95927.03
2019-03-28T03:21:36.467Z,95922.25
2019-03-28T03:24:04.517Z,95927.22
2019-03-28T03:26:32.417Z,95928.20
2019-03-28T03:29:00.423Z,95932.41
2019-03-28T03:31:28.485Z,95934.69
2019-03-28T03:33:56.515Z,95934.12
2019-03-28T03:36:24.628Z,95934.11
2019-03-28T03:38:52.701Z,95954.35
2019-03-28T03:41:20.644Z,95956.99
2019-03-28T03:43:49.671Z,95943.39
2019-03-28T03:46:17.765Z,95948.51
2019-03-28T03:48:45.841Z,95953.31
2019-03-28T03:51:14.607Z,95962.06
2019-03-28T03:53:42.978Z,95965.70
2019-03-28T03:56:10.980Z,95956.92
2019-03-28T03:58:39.446Z,95959.36
2019-03-28T04:01:07.443Z,95964.87
2019-03-28T04:03:35.464Z,95970.55
2019-03-28T04:06:03.606Z,95970.77
2019-03-28T04:08:31.550Z,95975.52
2019-03-28T04:10:59.627Z,95971.86
2019-03-28T04:13:27.626Z,95978.50
2019-03-28T04:15:55.777Z,95977.48
2019-03-28T04:18:23.825Z,95980.04
2019-03-28T04:20:51.952Z,95981.41
2019-03-28T04:23:20.057Z,95986.89
2019-03-28T04:25:48.135Z,95981.81
2019-03-28T04:28:30.825Z,95982.05
2019-03-28T04:30:46.035Z,95990.38
2019-03-28T04:33:14.097Z,95986.34
2019-03-28T04:35:42.227Z,96009.55
2019-03-28T04:38:10.276Z,95990.11
2019-03-28T04:40:38.207Z,95995.01
2019-03-28T04:43:06.241Z,95999.73
2019-03-28T04:45:34.374Z,96003.77
2019-03-28T04:48:02.299Z,96010.45
2019-03-28T04:50:30.267Z,95999.64
2019-03-28T04:52:58.327Z,96013.97
2019-03-28T04:55:26.325Z,96016.27
2019-03-28T04:57:55.389Z,96014.86
2019-03-28T05:00:24.138Z,96020.55
2019-03-28T05:02:52.156Z,96016.64
2019-03-28T05:05:20.723Z,96035.60
2019-03-28T05:07:48.753Z,96013.00
2019-03-28T05:10:16.828Z,96026.86
2019-03-28T05:12:44.895Z,96025.48
2019-03-28T05:15:13.185Z,96029.45
2019-03-28T05:17:41.228Z,96015.13
2019-03-28T05:20:09.538Z,96018.82
2019-03-28T05:22:37.553Z,96016.59
2019-03-28T05:25:06.063Z,96009.63
2019-03-28T05:27:34.053Z,96007.77
2019-03-28T05:30:02.060Z,96011.56
2019-03-28T05:32:30.042Z,96013.66
2019-03-28T05:34:58.133Z,96002.97
2019-03-28T05:37:26.139Z,96015.60
2019-03-28T05:39:54.184Z,96014.06
2019-03-28T05:42:22.231Z,96009.25
2019-03-28T05:44:50.454Z,96006.94
2019-03-28T05:47:18.460Z,96007.86
2019-03-28T05:49:46.427Z,96009.36
2019-03-28T05:52:14.490Z,96010.58
2019-03-28T05:54:42.479Z,96005.55
2019-03-28T05:57:10.498Z,96014.61
2019-03-28T05:59:38.575Z,96006.85
2019-03-28T06:02:06.742Z,96010.59
2019-03-28T06:04:34.768Z,96006.95
2019-03-28T06:07:03.136Z,96004.48
2019-03-28T06:09:31.169Z,96004.99
2019-03-28T06:11:59.281Z,96006.72
2019-03-28T06:14:27.651Z,96008.56
2019-03-28T06:16:55.742Z,96019.27
2019-03-28T06:19:23.791Z,96015.34
2019-03-28T06:21:51.730Z,95998.37
2019-03-28T06:24:19.783Z,96001.44
2019-03-28T06:26:49.994Z,96011.30
2019-03-28T06:29:23.767Z,96013.05
2019-03-28T06:31:55.103Z,96015.45
2019-03-28T06:34:18.139Z,96020.48
2019-03-28T06:36:46.114Z,96023.91
2019-03-28T06:39:14.163Z,96014.63
2019-03-28T06:41:44.370Z,96023.70
2019-03-28T06:44:12.068Z,96025.98
2019-03-28T06:46:40.075Z,96031.80
2019-03-28T06:49:08.073Z,96036.56
2019-03-28T06:51:36.673Z,96041.70
2019-03-28T06:54:04.700Z,96030.53
2019-03-28T06:56:32.702Z,96035.20
2019-03-28T06:59:00.774Z,96040.10
2019-03-28T07:01:28.771Z,96029.06
2019-03-28T07:03:56.846Z,96030.27
2019-03-28T07:06:25.418Z,96035.56
2019-03-28T07:08:53.552Z,96034.08
2019-03-28T07:11:21.735Z,96044.22
2019-03-28T07:13:49.761Z,96037.98
2019-03-28T07:16:20.906Z,96045.00
2019-03-28T07:18:47.753Z,96045.09
2019-03-28T07:21:15.694Z,96046.78
2019-03-28T07:23:43.736Z,96054.33
2019-03-28T07:26:11.779Z,96053.66
2019-03-28T07:28:39.761Z,96055.11
2019-03-28T07:31:07.908Z,96063.95
2019-03-28T07:33:35.937Z,96053.13
2019-03-28T07:36:03.945Z,96064.09
2019-03-28T07:38:31.926Z,96058.53
2019-03-28T07:40:59.977Z,96068.28
2019-03-28T07:43:28.001Z,96074.16
2019-03-28T07:45:56.012Z,96073.36
2019-03-28T07:48:24.021Z,96065.94
2019-03-28T07:50:51.962Z,96071.45
2019-03-28T07:53:20.932Z,96066.02
2019-03-28T07:55:50.004Z,96063.51
2019-03-28T07:58:17.974Z,96059.07
2019-03-28T08:00:46.023Z,96062.56
2019-03-28T08:03:14.092Z,96074.36
2019-03-28T08:05:43.622Z,96068.61
2019-03-28T08:08:11.677Z,96065.45
2019-03-28T08:10:39.726Z,96070.81
2019-03-28T08:13:07.881Z,96072.83
2019-03-28T08:15:35.923Z,96067.31
2019-03-28T08:18:04.114Z,96071.61
2019-03-28T08:20:32.186Z,96065.31
2019-03-28T08:23:00.198Z,96061.53
2019-03-28T08:25:28.235Z,96062.67
2019-03-28T08:27:57.756Z,96057.15
2019-03-28T08:30:35.205Z,96064.35
2019-03-28T08:33:03.912Z,96063.00
2019-03-28T08:35:32.780Z,96072.73
2019-03-28T08:38:00.779Z,96061.00
2019-03-28T08:40:40.285Z,96054.84
2019-03-28T08:43:08.492Z,96062.67
2019-03-28T08:45:36.629Z,96052.33
2019-03-28T08:48:04.736Z,96058.11
2019-03-28T08:50:32.869Z,96059.61
2019-03-28T08:53:00.969Z,96059.19
2019-03-28T08:55:29.204Z,96060.15
2019-03-28T08:57:57.166Z,96055.16
2019-03-28T09:00:33.078Z,96066.10
2019-03-28T09:02:55.335Z,96064.25
2019-03-28T09:05:23.595Z,96058.02
2019-03-28T09:07:51.896Z,96059.61
2019-03-28T09:10:19.927Z,96050.92
2019-03-28T09:12:47.971Z,96048.48
2019-03-28T09:15:16.134Z,96046.80
2019-03-28T09:17:44.173Z,96051.14
2019-03-28T09:20:12.424Z,96050.99
2019-03-28T09:22:40.405Z,96052.05
2019-03-28T09:25:08.750Z,96050.47
2019-03-28T09:27:36.765Z,96067.34
2019-03-28T09:30:05.815Z,96051.45
2019-03-28T09:32:34.189Z,96054.77
2019-03-28T09:35:02.288Z,96052.93
2019-03-28T09:37:30.361Z,96045.72
2019-03-28T09:39:58.471Z,96049.64
2019-03-28T09:42:26.410Z,96048.10
2019-03-28T09:44:54.526Z,96046.22
2019-03-28T09:47:22.714Z,96042.96
2019-03-28T09:49:50.964Z,96035.51
2019-03-28T09:52:19.213Z,96035.98
2019-03-28T09:54:47.202Z,96038.75
2019-03-28T09:57:15.251Z,96041.03
2019-03-28T09:59:43.234Z,96022.45
2019-03-28T10:02:11.444Z,96025.47
2019-03-28T10:04:39.491Z,96037.12
2019-03-28T10:07:07.887Z,96036.52
2019-03-28T10:09:36.135Z,96034.06
2019-03-28T10:12:04.388Z,96025.98
2019-03-28T10:14:32.441Z,96032.59
2019-03-28T10:17:01.422Z,96030.09
2019-03-28T10:19:29.516Z,96023.50
2019-03-28T10:21:57.723Z,96029.63
2019-03-28T10:24:25.699Z,96014.78
2019-03-28T10:26:53.918Z,96016.05
2019-03-28T10:29:21.981Z,96011.73
2019-03-28T10:31:50.369Z,96000.34
2019-03-28T10:34:19.087Z,95999.52
2019-03-28T10:36:47.134Z,96002.36
2019-03-28T10:39:15.248Z,96014.64
2019-03-28T10:41:43.289Z,95999.49
2019-03-28T10:44:11.390Z,96000.61
2019-03-28T10:46:39.479Z,95998.02
2019-03-28T10:49:07.466Z,95984.70
2019-03-28T10:51:35.574Z,95980.36
2019-03-28T10:54:03.527Z,95974.39
2019-03-28T10:56:31.570Z,95984.73
2019-03-28T10:58:59.628Z,95982.45
2019-03-28T11:01:47.162Z,95982.39
2019-03-28T11:03:57.630Z,95972.02
2019-03-28T11:06:25.801Z,95976.33
2019-03-28T11:08:53.806Z,95967.41
2019-03-28T11:11:22.572Z,95952.51
2019-03-28T11:13:51.082Z,95963.58
2019-03-28T11:16:19.262Z,95965.20
2019-03-28T11:18:47.240Z,95963.17
2019-03-28T11:21:15.339Z,95960.53
2019-03-28T11:23:43.299Z,95956.43
2019-03-28T11:26:11.332Z,95951.63
2019-03-28T11:28:39.372Z,95932.63
2019-03-28T11:31:07.379Z,95949.60
2019-03-28T11:33:35.299Z,95941.95
2019-03-28T11:36:03.443Z,95933.77
2019-03-28T11:38:31.439Z,95935.30
2019-03-28T11:40:59.511Z,95935.73
2019-03-28T11:43:27.472Z,95930.84
2019-03-28T11:45:55.654Z,95919.25
2019-03-28T11:48:23.729Z,95925.00
2019-03-28T11:50:51.780Z,95917.19
2019-03-28T11:53:19.805Z,95921.09
2019-03-28T11:55:48.985Z,95913.77
2019-03-28T11:58:17.124Z,95915.45
2019-03-28T12:00:45.214Z,95913.27
2019-03-28T12:03:13.322Z,95905.81
2019-03-28T12:05:41.443Z,95916.11
2019-03-28T12:08:09.705Z,95910.89
2019-03-28T12:10:38.791Z,95903.26
2019-03-28T12:13:07.284Z,95899.87
2019-03-28T12:15:35.428Z,95897.30
2019-03-28T12:18:03.602Z,95901.59
2019-03-28T12:20:31.632Z,95893.33
2019-03-28T12:22:59.611Z,95897.05
2019-03-28T12:25:27.718Z,95893.41
2019-03-28T12:27:55.772Z,95884.31
2019-03-28T12:30:23.966Z,95885.27
2019-03-28T12:32:52.035Z,95886.67
2019-03-28T12:35:20.074Z,95875.23
2019-03-28T12:37:48.900Z,95879.56
2019-03-28T12:40:17.002Z,95871.13
2019-03-28T12:42:45.198Z,95865.84
2019-03-28T12:45:14.475Z,95854.53
2019-03-28T12:47:43.256Z,95853.87
2019-03-28T12:50:12.296Z,95858.41
2019-03-28T12:52:40.365Z,95852.45
2019-03-28T12:55:08.952Z,95850.81
2019-03-28T12:57:37.053Z,95847.91
2019-03-28T13:00:06.946Z,95842.89
2019-03-28T13:02:35.252Z,95840.98
2019-03-28T13:05:03.784Z,95848.98
2019-03-28T13:07:31.832Z,95836.84
2019-03-28T13:09:59.917Z,95837.38
2019-03-28T13:12:27.990Z,95839.48
2019-03-28T13:14:56.132Z,95828.56
2019-03-28T13:17:24.315Z,95832.85
2019-03-28T13:19:52.350Z,95829.02
2019-03-28T13:22:20.289Z,95820.20
2019-03-28T13:24:48.290Z,95832.22
2019-03-28T13:27:16.297Z,95824.87
2019-03-28T13:29:44.357Z,95828.39
2019-03-28T13:32:12.409Z,95819.76
2019-03-28T13:34:40.501Z,95825.57
2019-03-28T13:37:08.477Z,95818.38
2019-03-28T13:39:36.581Z,95808.16
2019-03-28T13:42:04.720Z,95814.73
2019-03-28T13:44:32.846Z,95815.95
2019-03-28T13:47:00.851Z,95811.83
2019-03-28T13:49:28.781Z,95817.16
2019-03-28T13:51:56.885Z,95813.66
2019-03-28T13:54:24.886Z,95802.13
2019-03-28T13:56:52.965Z,95808.20
2019-03-28T13:59:20.930Z,95817.52
2019-03-28T14:01:49.070Z,95808.87
2019-03-28T14:04:17.067Z,95813.95
2019-03-28T14:06:45.098Z,95811.62
2019-03-28T14:09:13.183Z,95808.33
2019-03-28T14:11:41.253Z,95812.15
2019-03-28T14:14:09.558Z,95816.37
2019-03-28T14:16:37.894Z,95810.05
2019-03-28T14:19:06.092Z,95809.74
2019-03-28T14:21:34.104Z,95803.45
2019-03-28T14:24:02.766Z,95815.03
2019-03-28T14:26:30.886Z,95801.72
2019-03-28T14:28:58.971Z,95807.55
2019-03-28T14:31:26.974Z,95796.39
2019-03-28T14:33:55.112Z,95803.05
2019-03-28T14:36:25.191Z,95802.60
2019-03-28T14:38:53.147Z,95796.83
2019-03-28T14:41:21.172Z,95798.90
2019-03-28T14:43:49.143Z,95803.55
2019-03-28T14:46:17.179Z,95801.67
2019-03-28T14:48:45.244Z,95794.66
2019-03-28T14:51:13.369Z,95800.90
2019-03-28T14:53:41.421Z,95801.88
2019-03-28T14:56:09.666Z,95801.05
2019-03-28T14:58:38.683Z,95795.98
2019-03-28T15:01:06.713Z,95796.06
2019-03-28T15:03:34.651Z,95797.20
2019-03-28T15:06:02.777Z,95794.45
2019-03-28T15:08:30.922Z,95793.09
2019-03-28T15:10:59.059Z,95792.50
2019-03-28T15:13:27.186Z,95799.01
2019-03-28T15:15:55.213Z,95796.30
2019-03-28T15:18:23.187Z,95797.44
2019-03-28T15:20:51.197Z,95803.50
2019-03-28T15:23:19.319Z,95798.56
2019-03-28T15:25:47.403Z,95799.94
2019-03-28T15:28:15.512Z,95802.59
2019-03-28T15:30:44.050Z,95801.39
2019-03-28T15:33:12.307Z,95805.89
2019-03-28T15:35:40.491Z,95796.93
2019-03-28T15:38:08.686Z,95802.83
2019-03-28T15:40:36.845Z,95817.28
2019-03-28T15:43:05.097Z,95803.44
2019-03-28T15:45:33.747Z,95815.70
2019-03-28T15:48:02.304Z,95823.76
2019-03-28T15:50:30.436Z,95813.31
2019-03-28T15:52:58.604Z,95823.76
2019-03-28T15:55:26.713Z,95827.20
2019-03-28T15:57:54.766Z,95827.41
2019-03-28T16:00:23.104Z,95834.52
2019-03-28T16:02:51.357Z,95824.05
2019-03-28T16:05:19.876Z,95818.48
2019-03-28T16:07:48.013Z,95831.89
2019-03-28T16:10:17.028Z,95823.93
2019-03-28T16:12:45.263Z,95833.39
2019-03-28T16:15:14.788Z,95823.20
2019-03-28T16:17:42.792Z,95834.41
2019-03-28T16:20:11.343Z,95835.41
2019-03-28T16:22:39.496Z,95840.42
2019-03-28T16:25:07.886Z,95831.91
2019-03-28T16:27:36.191Z,95827.88
2019-03-28T16:30:06.315Z,95838.20
2019-03-28T16:32:34.405Z,95830.53
2019-03-28T16:35:03.884Z,95830.97
2019-03-28T16:37:32.744Z,95834.56
2019-03-28T16:40:01.585Z,95834.83
2019-03-28T16:42:29.720Z,95841.44
2019-03-28T16:44:58.009Z,95841.09
2019-03-28T16:47:26.467Z,95847.75
2019-03-28T16:49:54.827Z,95851.05
2019-03-28T16:52:23.750Z,95847.57
2019-03-28T16:54:52.026Z,95854.84
2019-03-28T16:57:20.490Z,95851.17
2019-03-28T16:59:48.680Z,95848.05
2019-03-28T17:02:16.719Z,95847.27
2019-03-28T17:04:44.786Z,95849.61
2019-03-28T17:07:14.394Z,95852.23
2019-03-28T17:09:42.833Z,95857.53
2019-03-28T17:12:10.900Z,95851.45
2019-03-28T17:14:39.169Z,95851.03
2019-03-28T17:17:07.160Z,95864.33
2019-03-28T17:19:35.241Z,95867.42
2019-03-28T17:22:03.236Z,95867.59
2019-03-28T17:24:32.034Z,95876.13
2019-03-28T17:27:00.036Z,95874.17
2019-03-28T17:29:28.198Z,95878.36
2019-03-28T17:31:56.592Z,95884.17
2019-03-28T17:34:34.786Z,95876.16
2019-03-28T17:36:55.211Z,95874.29
2019-03-28T17:39:23.499Z,95880.67
2019-03-28T17:41:52.768Z,95892.81
2019-03-28T17:44:21.016Z,95885.74
2019-03-28T17:46:49.033Z,95891.88
2019-03-28T17:49:17.086Z,95878.11
2019-03-28T17:51:45.073Z,95886.56
2019-03-28T17:54:13.193Z,95899.23
2019-03-28T17:56:42.170Z,95894.16
2019-03-28T17:59:10.277Z,95900.91
2019-03-28T18:01:38.382Z,95900.19
2019-03-28T18:04:06.551Z,95910.56
2019-03-28T18:06:35.350Z,95907.16
2019-03-28T18:09:06.286Z,95903.30
2019-03-28T18:11:34.363Z,95915.52
2019-03-28T18:14:04.010Z,95914.16
2019-03-28T18:16:32.304Z,95909.60
2019-03-28T18:19:00.495Z,95925.36
2019-03-28T18:21:28.673Z,95924.58
2019-03-28T18:23:56.670Z,95920.73
2019-03-28T18:26:25.740Z,95928.14
2019-03-28T18:28:54.457Z,95916.86
2019-03-28T18:31:22.551Z,95919.62
2019-03-28T18:33:50.625Z,95930.16
2019-03-28T18:36:18.665Z,95923.66
2019-03-28T18:38:48.148Z,95928.75
2019-03-28T18:41:16.276Z,95919.36
2019-03-28T18:43:44.267Z,95929.70
2019-03-28T18:46:14.745Z,95926.96
2019-03-28T18:48:42.482Z,95925.78
2019-03-28T18:51:11.307Z,95920.39
2019-03-28T18:53:41.363Z,95931.83
2019-03-28T18:56:09.463Z,95931.25
2019-03-28T18:58:38.784Z,95935.41
2019-03-28T19:01:07.563Z,95937.53
2019-03-28T19:03:36.470Z,95940.52
2019-03-28T19:06:04.511Z,95943.25
2019-03-28T19:08:32.634Z,95945.38
2019-03-28T19:11:00.987Z,95946.81
2019-03-28T19:13:29.222Z,95950.74
2019-03-28T19:15:57.226Z,95948.12
2019-03-28T19:18:25.716Z,95960.94
2019-03-28T19:20:54.042Z,95957.91
2019-03-28T19:23:22.011Z,95951.22
2019-03-28T19:25:50.064Z,95941.95
2019-03-28T19:28:28.741Z,95950.69
2019-03-28T19:30:49.192Z,95945.19
2019-03-28T19:33:18.011Z,95952.69
2019-03-28T19:35:48.370Z,95951.67
2019-03-28T19:38:18.808Z,95953.44
2019-03-28T19:40:47.500Z,95960.78
2019-03-28T19:43:20.835Z,95956.72
2019-03-28T19:45:46.470Z,95956.67
2019-03-28T19:48:15.278Z,95956.63
2019-03-28T19:50:43.556Z,95970.27
2019-03-28T19:53:12.113Z,95955.56
2019-03-28T19:55:40.365Z,95966.80
2019-03-28T19:58:08.952Z,95968.05
2019-03-28T20:00:37.366Z,95967.70
2019-03-28T20:03:05.439Z,95974.28
2019-03-28T20:05:46.336Z,95970.05
2019-03-28T20:08:14.816Z,95971.72
2019-03-28T20:10:33.939Z,95934.56
2019-03-28T20:13:05.294Z,95964.56
2019-03-28T20:15:32.423Z,95964.20
2019-03-28T20:18:00.350Z,95972.12
2019-03-28T20:20:28.455Z,95966.04
2019-03-28T20:22:56.775Z,95962.03
2019-03-28T20:25:25.883Z,95962.96
2019-03-28T20:27:53.947Z,95952.23
2019-03-28T20:30:22.285Z,95964.44
2019-03-28T20:32:50.245Z,95961.97
2019-03-28T20:35:18.687Z,95957.67
2019-03-28T20:37:46.746Z,95968.94
2019-03-28T20:40:17.221Z,95965.39
2019-03-28T20:42:45.558Z,95962.57
2019-03-28T20:45:14.260Z,95964.92
2019-03-28T20:47:42.399Z,95972.47
2019-03-28T20:50:11.320Z,95962.57
2019-03-28T20:52:39.298Z,95967.12
2019-03-28T20:55:07.875Z,95966.52
2019-03-28T20:57:36.203Z,95969.20
2019-03-28T21:00:08.313Z,95970.66
2019-03-28T21:02:35.045Z,95968.89
2019-03-28T21:05:03.446Z,95967.98
2019-03-28T21:07:31.499Z,95974.15
2019-03-28T21:09:59.587Z,95976.15
2019-03-28T21:12:27.579Z,95988.43
2019-03-28T21:14:55.650Z,95975.75
2019-03-28T21:17:23.644Z,95981.99
2019-03-28T21:19:51.683Z,95979.30
2019-03-28T21:22:20.838Z,95988.34
2019-03-28T21:24:49.018Z,95982.50
2019-03-28T21:27:17.036Z,95977.49
2019-03-28T21:29:48.991Z,95988.26
2019-03-28T21:32:15.008Z,95991.97
2019-03-28T21:34:43.221Z,95997.28
2019-03-28T21:37:11.255Z,95990.53
2019-03-28T21:39:40.266Z,95986.64
2019-03-28T21:42:08.635Z,95987.54
2019-03-28T21:44:36.857Z,95991.27
2019-03-28T21:47:04.845Z,95988.03
2019-03-28T21:49:32.868Z,95992.63
2019-03-28T21:52:01.405Z,95985.30
2019-03-28T21:54:29.523Z,95990.22
2019-03-28T21:56:58.316Z,95990.61
2019-03-28T21:59:30.029Z,95990.14
2019-03-28T22:01:58.982Z,95987.31
2019-03-28T22:04:27.069Z,95986.86
2019-03-28T22:06:55.375Z,95984.79
2019-03-28T22:09:24.207Z,95996.06
2019-03-28T22:11:53.020Z,95994.34
2019-03-28T22:14:21.486Z,95990.02
2019-03-28T22:16:49.978Z,95994.08
2019-03-28T22:19:18.300Z,96003.44
2019-03-28T22:21:46.275Z,95994.70
2019-03-28T22:24:14.643Z,95998.34
2019-03-28T22:26:45.912Z,96010.20
2019-03-28T22:29:12.877Z,96014.45
2019-03-28T22:31:40.894Z,96017.73
2019-03-28T22:34:08.912Z,96012.54
2019-03-28T22:36:36.992Z,96014.05
2019-03-28T22:39:07.337Z,96017.48
2019-03-28T22:41:35.359Z,96023.59
2019-03-28T22:44:04.099Z,96021.89
2019-03-28T22:46:32.117Z,96023.80
2019-03-28T22:49:00.251Z,96023.06
2019-03-28T22:51:31.497Z,96025.74
2019-03-28T22:53:58.362Z,96022.53
2019-03-28T22:56:26.454Z,96021.89
2019-03-28T22:58:54.619Z,96027.58
2019-03-28T23:01:22.596Z,96032.35
2019-03-28T23:03:50.610Z,96035.60
2019-03-28T23:06:18.619Z,96033.48
2019-03-28T23:08:46.639Z,96030.23
2019-03-28T23:11:14.844Z,96029.09
2019-03-28T23:13:42.877Z,96029.84
2019-03-28T23:16:10.835Z,96030.83
2019-03-28T23:18:39.895Z,96032.35
2019-03-28T23:21:08.154Z,96037.75
2019-03-28T23:23:36.125Z,96037.75
2019-03-28T23:26:04.180Z,96042.96
2019-03-28T23:28:32.292Z,96036.95
2019-03-28T23:31:00.283Z,96036.55
2019-03-28T23:33:28.287Z,96032.73
2019-03-28T23:35:56.292Z,96037.91
2019-03-28T23:38:24.293Z,96036.41
2019-03-28T23:40:52.332Z,96037.75
2019-03-28T23:43:20.368Z,96037.94
2019-03-28T23:45:48.477Z,96038.52
2019-03-28T23:48:16.516Z,96031.09
2019-03-28T23:50:44.504Z,96036.27
2019-03-28T23:53:12.555Z,96035.88
2019-03-28T23:55:40.569Z,96032.03
2019-03-28T23:58:08.535Z,96027.06
